Waynesville, NC (28785)

11:43 PM EDT on May 26, 2015 (GMT -0400)
Iron Duff | | Change Station
CLOSE
Current Station
Personal Weather Station
Location: Waynesville, NC
Elevation: 2800 ft
Nearby Weather Stations

Elev 2800 ft 35.58 °N, 82.98 °W | Updated 19 seconds ago

Overcast
Overcast
64.6 °F
Feels Like 64.6 °F
N
0.0
Wind Variable Wind from NW
Gusts 0.0 mph

Today
High -- | Low -- °F
--% Chance of Precip.
Yesterday
High -- | Low -- °F
Precip. -- in
6:20 AM 8:38 PM
Waxing Gibbous, 63% visible
Pressure 30.22 in
Visibility 10.0 miles
Clouds Mostly Cloudy 11000 ft
Dew Point 64 °F
Humidity 99%
Rainfall 0.83 in
Snow Depth Not available.
UV 0 out of 12
Pollen .80 out of 12
Air Quality Not available.
Flu Activity No Activity
METAR KAVL 270254Z VRB03KT 10SM -RA BKN110 18/17 A3028 RMK AO2 SLP231 P0006 60030 T01780167 53016

More Conditions Fewer Conditions

Pressure 30.22 in
Visibility 10.0 miles
Clouds Mostly Cloudy 11000 ft
Dew Point 64 °F
Humidity 99%
Rainfall 0.83 in
Snow Depth Not available.
UV 0 out of 12
Pollen .80 out of 12
Air Quality Not available.
Flu Activity No Activity
METAR KAVL 270254Z VRB03KT 10SM -RA BKN110 18/17 A3028 RMK AO2 SLP231 P0006 60030 T01780167 53016

More Conditions Fewer Conditions

10-Day Weather Forecast

Almanac

Astronomy

May. 26, 2015 Rise Set
Actual Time
Civil Twilight
Nautical Twilight
Astronomical Twilight
Moon
Length of Visible Light
Length of Day
Tomorrow will be .
, % of the Moon is Illuminated

Today's Extremes

State Highs State Lows

Community

WunderPhotos

Upload Photos

1,824,600 photos uploaded!

WunderBlogs® & News

Nearby

Air Quality

  Air Quality AQ Index Pollutant
Not available.

Snow Depth

Station Depth Elevation

Earthquake Activity

City Distance Mag. Time & Date
Minimum magnitude displayed is 2.5.

Coastal Water Temperatures

Place Temperature

Stations

Nearby Weather Stations

Station Location Temp. Windchill Dew Point Humidity Wind Precip. Elev Updated Type